»·PEaware :: N900GS CYVR-KSFO

N900GS :: CYVR-KSFO

FLIGHT INFORMATION

Flight Status: Arrived
Operator: Privately registered:
United States
More flights under this callsign
Pilot: Rich M. (25145)
Aircraft: SOCATA TBM-900
(TBM9)
More flights by this aircraft type
Origin: CYVR Vancouver Intl
Canada
Destination: KSFO San Francisco Intl
United States
More flights between these airports :: More routes between these airports
Route: +YYJ J589 ELMAA EUG J143 PYE
File this flight plan on PilotEdge
Remarks:
Altitude:
(Current/Filed)
27,000ft
Speed:
(Current/Filed)
290kts
Departed: 24-Jun-19 07:48 AM
Arrived: 24-Jun-19 10:24 AM
Distance/Time
Traveled:
695nm/2:36
Distance/Time
To Go:
Arrived

Flight Plot

Page will automatically refresh every two minutes.

Flight plan parsing failed; only flown route is shown


Map Options




Map Legend


Flown Route
Filed Route
Departure Airport
Arrival Airport
Navaid (VOR, NDB)
Fix

Horizontal Profiles

Position Reports

Time Latitude Longitude Heading Altitude Ground
Speed
24-Jun-19 07:19 49.181633 -123.161498 189 10ft 0kts
24-Jun-19 07:20 49.181633 -123.161498 189 10ft 0kts
24-Jun-19 07:21 49.181633 -123.161498 189 10ft 0kts
24-Jun-19 07:22 49.181633 -123.161498 189 10ft 0kts
24-Jun-19 07:23 49.181633 -123.161498 189 10ft 0kts
24-Jun-19 07:24 49.181633 -123.161498 189 10ft 0kts
24-Jun-19 07:25 49.181633 -123.161498 189 10ft 0kts
24-Jun-19 07:26 49.181633 -123.161498 189 10ft 0kts
24-Jun-19 07:27 49.181633 -123.161498 189 10ft 0kts
24-Jun-19 07:28 49.181633 -123.161498 189 10ft 0kts
24-Jun-19 07:29 49.181633 -123.161498 189 10ft 0kts
24-Jun-19 07:30 49.181633 -123.161498 189 10ft 0kts
24-Jun-19 07:31 49.181633 -123.161498 189 10ft 0kts
24-Jun-19 07:32 49.181633 -123.161498 189 10ft 0kts
24-Jun-19 07:33 49.181633 -123.161498 189 10ft 0kts
24-Jun-19 07:34 49.181633 -123.161498 189 10ft 0kts
24-Jun-19 07:35 49.181633 -123.161498 189 10ft 0kts
24-Jun-19 07:36 49.181633 -123.161498 189 10ft 0kts
24-Jun-19 07:37 49.181633 -123.161498 189 10ft 0kts
24-Jun-19 07:38 49.181633 -123.161498 189 10ft 0kts
24-Jun-19 07:39 49.181821 -123.162755 357 10ft 7kts
24-Jun-19 07:40 49.182430 -123.167292 274 10ft 15kts
24-Jun-19 07:41 49.182967 -123.172129 324 10ft 3kts
24-Jun-19 07:42 49.184394 -123.174815 281 10ft 14kts
24-Jun-19 07:43 49.185194 -123.181900 279 13ft 18kts
24-Jun-19 07:44 49.186114 -123.189955 279 10ft 12kts
24-Jun-19 07:45 49.186640 -123.194496 281 10ft 14kts
24-Jun-19 07:46 49.188578 -123.196506 20 13ft 9kts
24-Jun-19 07:47 49.185797 -123.169588 100 437ft 127kts
24-Jun-19 07:48 49.177919 -123.113363 118 2476ft 141kts
24-Jun-19 07:49 49.147243 -123.128490 225 4637ft 147kts
24-Jun-19 07:50 49.114062 -123.165518 212 6636ft 150kts
24-Jun-19 07:51 49.077086 -123.197794 209 8709ft 156kts
24-Jun-19 07:52 49.038357 -123.229903 210 10732ft 162kts
24-Jun-19 07:53 48.998729 -123.262551 211 12770ft 164kts
24-Jun-19 07:54 48.958387 -123.295716 212 14658ft 168kts
24-Jun-19 07:55 48.917250 -123.329430 212 16682ft 169kts
24-Jun-19 07:56 48.879634 -123.360206 213 18314ft 171kts
24-Jun-19 07:57 48.837565 -123.394550 214 19943ft 174kts
24-Jun-19 07:58 48.794827 -123.429370 214 21418ft 176kts
24-Jun-19 07:59 48.751222 -123.464838 214 22750ft 179kts
24-Jun-19 08:00 48.702543 -123.483163 186 23939ft 193kts
24-Jun-19 08:01 48.648195 -123.480875 187 25014ft 197kts
24-Jun-19 08:02 48.592822 -123.478386 187 26009ft 199kts
24-Jun-19 08:03 48.535858 -123.475865 188 27150ft 217kts
24-Jun-19 08:04 48.466112 -123.472845 186 27167ft 276kts
24-Jun-19 08:05 48.385397 -123.469132 185 27150ft 299kts
24-Jun-19 08:06 48.300932 -123.465336 185 27145ft 306kts
24-Jun-19 08:07 48.221353 -123.461659 185 27143ft 309kts
24-Jun-19 08:08 48.140790 -123.457672 185 27143ft 310kts
24-Jun-19 08:09 48.061703 -123.453765 185 27142ft 310kts
24-Jun-19 08:10 47.975242 -123.449486 185 27143ft 310kts
24-Jun-19 08:11 47.889180 -123.445298 185 27148ft 310kts
24-Jun-19 08:12 47.803449 -123.441107 186 27152ft 310kts
24-Jun-19 08:13 47.717406 -123.436917 186 27151ft 308kts
24-Jun-19 08:14 47.631655 -123.432760 186 27152ft 307kts
24-Jun-19 08:15 47.546307 -123.428632 186 27152ft 307kts
24-Jun-19 08:16 47.460850 -123.424515 186 27149ft 307kts
24-Jun-19 08:17 47.375230 -123.420402 186 27144ft 307kts
24-Jun-19 08:18 47.289886 -123.416315 186 27142ft 307kts
24-Jun-19 08:19 47.204880 -123.412259 186 27142ft 308kts
24-Jun-19 08:20 47.119177 -123.408599 187 27142ft 307kts
24-Jun-19 08:21 47.033483 -123.405755 187 27142ft 308kts
24-Jun-19 08:22 46.947589 -123.402919 187 27142ft 308kts
24-Jun-19 08:23 46.866499 -123.400297 187 27143ft 308kts
24-Jun-19 08:24 46.780825 -123.397611 187 27153ft 308kts
24-Jun-19 08:25 46.695405 -123.394934 187 27161ft 308kts
24-Jun-19 08:26 46.609336 -123.392245 187 27161ft 308kts
24-Jun-19 08:27 46.523337 -123.389564 187 27161ft 308kts
24-Jun-19 08:28 46.437626 -123.386906 187 27161ft 308kts
24-Jun-19 08:29 46.351848 -123.384253 187 27158ft 308kts
24-Jun-19 08:30 46.266030 -123.381606 187 27160ft 308kts
24-Jun-19 08:31 46.179686 -123.376703 185 27158ft 309kts
24-Jun-19 08:32 46.093521 -123.370063 185 27152ft 310kts
24-Jun-19 08:33 46.007151 -123.363402 185 27152ft 310kts
24-Jun-19 08:34 45.920741 -123.356754 185 27151ft 310kts
24-Jun-19 08:35 45.836893 -123.350323 185 27152ft 310kts
24-Jun-19 08:36 45.750553 -123.343714 186 27152ft 310kts
24-Jun-19 08:37 45.664555 -123.337167 186 27152ft 311kts
24-Jun-19 08:38 45.578111 -123.330599 186 27153ft 311kts
24-Jun-19 08:39 45.502754 -123.324890 186 27162ft 311kts
24-Jun-19 08:40 45.416512 -123.318376 186 27170ft 311kts
24-Jun-19 08:41 45.330186 -123.311875 186 27171ft 311kts
24-Jun-19 08:42 45.243453 -123.305364 186 27171ft 312kts
24-Jun-19 08:43 45.156927 -123.298886 186 27170ft 312kts
24-Jun-19 08:44 45.070586 -123.292444 186 27168ft 312kts
24-Jun-19 08:45 44.983938 -123.285998 186 27163ft 312kts
24-Jun-19 08:47 44.899823 -123.279758 186 27160ft 312kts
24-Jun-19 08:48 44.813977 -123.273403 186 27162ft 312kts
24-Jun-19 08:49 44.729222 -123.267157 186 27162ft 312kts
24-Jun-19 08:50 44.642225 -123.260761 186 27162ft 312kts
24-Jun-19 08:51 44.555460 -123.254402 186 27162ft 312kts
24-Jun-19 08:52 44.468727 -123.248064 186 27162ft 312kts
24-Jun-19 08:53 44.381758 -123.241727 186 27157ft 312kts
24-Jun-19 08:54 44.295145 -123.235466 186 27153ft 312kts
24-Jun-19 08:55 44.208276 -123.229121 186 27153ft 312kts
24-Jun-19 08:56 44.121367 -123.223379 191 27143ft 308kts
24-Jun-19 08:57 44.036907 -123.234589 195 27153ft 304kts
24-Jun-19 08:58 43.952984 -123.246287 195 27153ft 305kts
24-Jun-19 08:59 43.869187 -123.257942 195 27153ft 305kts
24-Jun-19 09:00 43.784521 -123.269684 195 27148ft 305kts
24-Jun-19 09:01 43.700091 -123.281361 195 27138ft 305kts
24-Jun-19 09:02 43.615459 -123.293032 195 27133ft 305kts
24-Jun-19 09:03 43.530790 -123.304676 195 27134ft 305kts
24-Jun-19 09:04 43.446293 -123.316263 195 27134ft 304kts
24-Jun-19 09:05 43.361978 -123.327793 195 27133ft 304kts
24-Jun-19 09:05 43.292030 -123.337334 195 27133ft 304kts
24-Jun-19 09:07 43.193742 -123.350705 195 27133ft 304kts
24-Jun-19 09:08 43.107616 -123.350731 188 27129ft 310kts
24-Jun-19 09:08 43.035661 -123.349295 188 27124ft 310kts
24-Jun-19 09:09 42.949459 -123.347572 188 27124ft 310kts
24-Jun-19 09:11 42.850361 -123.345596 188 27124ft 310kts
24-Jun-19 09:11 42.778182 -123.344161 188 27124ft 310kts
24-Jun-19 09:12 42.691985 -123.342454 188 27123ft 310kts
24-Jun-19 09:13 42.605333 -123.340741 188 27118ft 310kts
24-Jun-19 09:14 42.518936 -123.339038 188 27115ft 310kts
24-Jun-19 09:15 42.432706 -123.337343 188 27115ft 310kts
24-Jun-19 09:16 42.346190 -123.335647 188 27115ft 310kts
24-Jun-19 09:17 42.259877 -123.333960 188 27116ft 310kts
24-Jun-19 09:18 42.173424 -123.332274 188 27115ft 310kts
24-Jun-19 09:19 42.087167 -123.330597 188 27115ft 310kts
24-Jun-19 09:20 42.000616 -123.328919 188 27107ft 310kts
24-Jun-19 09:21 41.913883 -123.327243 188 27097ft 310kts
24-Jun-19 09:22 41.828009 -123.325586 188 27097ft 310kts
24-Jun-19 09:23 41.741660 -123.323924 188 27097ft 310kts
24-Jun-19 09:24 41.655248 -123.322268 188 27098ft 310kts
24-Jun-19 09:25 41.569025 -123.320627 188 27097ft 311kts
24-Jun-19 09:26 41.482294 -123.318962 188 27096ft 311kts
24-Jun-19 09:27 41.395895 -123.317318 188 27093ft 311kts
24-Jun-19 09:28 41.308928 -123.315669 188 27074ft 312kts
24-Jun-19 09:29 41.222077 -123.314025 188 27070ft 311kts
24-Jun-19 09:30 41.135426 -123.312400 188 27069ft 311kts
24-Jun-19 09:31 41.048833 -123.310760 188 27069ft 311kts
24-Jun-19 09:32 40.962571 -123.309140 188 27069ft 311kts
24-Jun-19 09:33 40.876520 -123.307529 188 27070ft 311kts
24-Jun-19 09:34 40.789481 -123.305902 188 27070ft 312kts
24-Jun-19 09:35 40.702479 -123.304281 187 27060ft 312kts
24-Jun-19 09:36 40.615947 -123.302673 187 27052ft 312kts
24-Jun-19 09:37 40.528840 -123.301067 187 27052ft 312kts
24-Jun-19 09:38 40.442126 -123.299456 187 27052ft 312kts
24-Jun-19 09:39 40.355474 -123.297858 187 27051ft 311kts
24-Jun-19 09:40 40.268746 -123.296263 187 27047ft 311kts
24-Jun-19 09:41 40.181861 -123.294669 187 27037ft 312kts
24-Jun-19 09:42 40.095303 -123.293086 187 27033ft 312kts
24-Jun-19 09:43 40.009213 -123.291515 187 27033ft 312kts
24-Jun-19 09:44 39.922374 -123.289937 187 27033ft 312kts
24-Jun-19 09:45 39.837778 -123.288398 187 27034ft 312kts
24-Jun-19 09:46 39.751067 -123.286826 187 27034ft 312kts
24-Jun-19 09:47 39.664275 -123.285257 187 27032ft 312kts
24-Jun-19 09:48 39.577413 -123.283692 187 27003ft 312kts
24-Jun-19 09:49 39.490652 -123.282146 187 26978ft 312kts
24-Jun-19 09:50 39.402548 -123.280596 186 26159ft 334kts
24-Jun-19 09:51 39.307108 -123.278833 186 24178ft 347kts
24-Jun-19 09:52 39.216008 -123.277180 187 23969ft 311kts
24-Jun-19 09:53 39.131843 -123.275711 187 23975ft 297kts
24-Jun-19 09:54 39.049865 -123.272957 174 23951ft 303kts
24-Jun-19 09:55 38.968559 -123.238572 169 23369ft 320kts
24-Jun-19 09:56 38.886304 -123.203822 168 21519ft 339kts
24-Jun-19 09:57 38.796054 -123.165820 167 19517ft 343kts
24-Jun-19 09:58 38.704885 -123.127552 167 17495ft 343kts
24-Jun-19 09:59 38.614755 -123.089832 166 15487ft 337kts
24-Jun-19 10:00 38.527900 -123.053560 165 13461ft 322kts
24-Jun-19 10:01 38.444142 -123.018642 164 11995ft 302kts
24-Jun-19 10:02 38.367147 -122.986633 164 11997ft 284kts
24-Jun-19 10:03 38.292679 -122.955757 164 11999ft 280kts
24-Jun-19 10:04 38.218467 -122.925054 164 12002ft 279kts
24-Jun-19 10:05 38.144504 -122.894254 164 12001ft 279kts
24-Jun-19 10:06 38.071996 -122.859233 145 11998ft 284kts
24-Jun-19 10:07 38.009982 -122.796377 143 12001ft 283kts
24-Jun-19 10:08 37.945287 -122.732131 143 10805ft 300kts
24-Jun-19 10:09 37.880036 -122.668211 143 9313ft 294kts
24-Jun-19 10:10 37.819073 -122.604917 128 8302ft 287kts
24-Jun-19 10:11 37.774786 -122.518727 123 6320ft 295kts
24-Jun-19 10:12 37.735489 -122.441643 122 5995ft 239kts
24-Jun-19 10:13 37.699192 -122.370071 122 4721ft 243kts
24-Jun-19 10:14 37.665922 -122.303463 123 3708ft 218kts
24-Jun-19 10:15 37.632844 -122.236629 123 2999ft 222kts
24-Jun-19 10:16 37.600192 -122.170194 123 3000ft 221kts
24-Jun-19 10:17 37.556177 -122.153124 245 2991ft 213kts
24-Jun-19 10:18 37.557465 -122.224012 298 2681ft 193kts
24-Jun-19 10:19 37.580664 -122.278668 297 1432ft 137kts
24-Jun-19 10:20 37.594901 -122.312730 298 830ft 97kts
24-Jun-19 10:21 37.606540 -122.340701 301 362ft 89kts
24-Jun-19 10:22 37.617135 -122.365599 295 6ft 48kts
24-Jun-19 10:23 37.620492 -122.373671 298 11ft 32kts
24-Jun-19 10:24 37.622235 -122.375668 48 16ft 2kts
24-Jun-19 10:25 37.622476 -122.375339 43 15ft 0kts
24-Jun-19 10:26 37.623334 -122.376803 297 16ft 13kts
24-Jun-19 10:27 37.625463 -122.381858 297 18ft 19kts
24-Jun-19 10:28 37.627439 -122.384126 28 12ft 7kts
24-Jun-19 10:29 37.627729 -122.384311 300 11ft 0kts
24-Jun-19 10:30 37.627729 -122.384311 300 11ft 0kts
24-Jun-19 10:31 37.627729 -122.384311 300 11ft 0kts
24-Jun-19 10:32 37.627729 -122.384311 300 11ft 0kts
24-Jun-19 10:33 37.627729 -122.384311 300 11ft 0kts
24-Jun-19 10:34 37.627729 -122.384311 300 11ft 0kts

Navigation Log

Ident Type
Flight plan parsing failed, navigation log unavailable